createdAt,value
2024-03-26T00:04:20.283Z,3.5
2024-03-26T00:09:20.311Z,3.7
2024-03-26T00:15:01.753Z,3.7
2024-03-26T00:20:01.802Z,3.8
2024-03-26T00:31:01.767Z,4.1
2024-03-26T00:36:01.777Z,4.3
2024-03-26T00:41:20.544Z,4.1
2024-03-26T00:47:01.755Z,4.2
2024-03-26T00:52:20.293Z,4.3
2024-03-26T00:58:01.750Z,4.2
2024-03-26T01:03:01.763Z,4.3
2024-03-26T01:08:20.283Z,4.1
2024-03-26T01:24:01.792Z,4.4
2024-03-26T01:29:17.555Z,4.2
2024-03-26T01:34:20.290Z,4.1
2024-03-26T01:40:01.754Z,4
2024-03-26T01:45:20.272Z,4.2
2024-03-26T01:51:01.755Z,4.3
2024-03-26T01:56:20.294Z,4.1
2024-03-26T02:02:01.780Z,3.9
2024-03-26T02:12:20.363Z,4
2024-03-26T02:18:01.772Z,3.9
2024-03-26T02:23:20.277Z,3.9
2024-03-26T02:28:20.281Z,3.9
2024-03-26T02:39:01.760Z,4
2024-03-26T02:44:20.286Z,4.1
2024-03-26T02:49:20.286Z,3.9
2024-03-26T02:55:01.781Z,4.1
2024-03-26T03:00:20.285Z,4.2
2024-03-26T03:06:01.801Z,4.2
2024-03-26T03:11:20.293Z,4.4
2024-03-26T03:17:01.767Z,4.2
2024-03-26T03:22:20.270Z,4.2
2024-03-26T03:27:20.294Z,4.3
2024-03-26T03:33:01.757Z,4.3
2024-03-26T03:38:20.291Z,4.2
2024-03-26T03:48:20.300Z,4.2
2024-03-26T03:54:01.781Z,4.2
2024-03-26T03:59:20.285Z,4.2
2024-03-26T04:10:01.761Z,4.1
2024-03-26T04:15:01.823Z,4.2
2024-03-26T04:20:20.288Z,4.2
2024-03-26T04:26:01.761Z,4.2
2024-03-26T04:37:01.750Z,4.4
2024-03-26T04:42:01.750Z,4.5
2024-03-26T04:47:20.274Z,4.2
2024-03-26T04:52:20.285Z,4.3
2024-03-26T04:58:01.760Z,4.4
2024-03-26T05:03:20.349Z,4.5
2024-03-26T05:14:20.299Z,4.5
2024-03-26T05:20:01.753Z,4.7
2024-03-26T05:25:01.766Z,4.6
2024-03-26T05:30:20.278Z,4.5
2024-03-26T05:36:01.759Z,4.5
2024-03-26T05:41:01.758Z,4.9
2024-03-26T05:46:20.281Z,5
2024-03-26T05:52:01.749Z,5.1
2024-03-26T05:57:20.273Z,5
2024-03-26T06:02:20.290Z,5.1
2024-03-26T06:08:01.757Z,5.2
2024-03-26T06:19:01.742Z,5.4
2024-03-26T06:24:01.745Z,5.4
2024-03-26T06:29:01.747Z,5.4
2024-03-26T06:39:01.760Z,5.4
2024-03-26T06:44:20.277Z,5.7
2024-03-26T06:49:20.298Z,5.5
2024-03-26T06:55:01.763Z,5.5
2024-03-26T07:00:01.832Z,5.3
2024-03-26T07:05:20.305Z,5.5
2024-03-26T07:11:01.757Z,5.7
2024-03-26T07:16:20.286Z,5.6
2024-03-26T07:22:01.819Z,5.5
2024-03-26T07:27:20.291Z,5.6
2024-03-26T07:32:20.302Z,5.6
2024-03-26T07:43:06.443Z,5.5
2024-03-26T07:48:22.256Z,5
2024-03-26T07:54:01.757Z,5.1
2024-03-26T07:59:01.774Z,5.1
2024-03-26T08:04:20.275Z,5.2
2024-03-26T08:10:01.813Z,6
2024-03-26T08:15:01.765Z,7.4
2024-03-26T08:20:01.834Z,7
2024-03-26T08:25:20.285Z,7.3
2024-03-26T08:30:20.330Z,7.1
2024-03-26T08:36:01.877Z,7
2024-03-26T08:41:20.284Z,7
2024-03-26T08:47:01.773Z,7.1
2024-03-26T08:52:01.741Z,7
2024-03-26T08:57:01.819Z,7.4
2024-03-26T09:02:20.289Z,7.1
2024-03-26T09:08:01.750Z,7.5
2024-03-26T09:13:01.816Z,7.6
2024-03-26T09:18:20.314Z,7.1
2024-03-26T09:24:02.128Z,7.2
2024-03-26T09:29:02.084Z,7.3
2024-03-26T09:34:20.273Z,6.9
2024-03-26T09:40:01.744Z,7.5
2024-03-26T09:45:05.852Z,7.1
2024-03-26T09:50:20.271Z,6.2
2024-03-26T09:55:20.289Z,6.3
2024-03-26T10:00:20.310Z,6.5
2024-03-26T10:06:01.788Z,6.5
2024-03-26T10:11:20.281Z,5.8
2024-03-26T10:16:20.265Z,6.5
2024-03-26T10:21:20.275Z,5.6
2024-03-26T10:27:01.790Z,5.6
2024-03-26T10:32:01.745Z,5.7
2024-03-26T10:37:20.263Z,5.2
2024-03-26T10:42:20.268Z,5.3
2024-03-26T10:47:20.273Z,5.2
2024-03-26T10:52:20.280Z,4.9
2024-03-26T10:58:01.751Z,4.6
2024-03-26T11:03:01.759Z,4.8
2024-03-26T11:08:01.765Z,5.3
2024-03-26T11:18:20.271Z,5.4
2024-03-26T11:23:20.353Z,5.7
2024-03-26T11:28:20.298Z,5.2
2024-03-26T11:39:20.304Z,5.5
2024-03-26T11:45:01.839Z,5.8
2024-03-26T11:50:20.277Z,5.2
2024-03-26T11:56:01.782Z,5.5
2024-03-26T12:07:01.766Z,6.2
2024-03-26T12:12:20.291Z,5.7
2024-03-26T12:17:20.296Z,6.3
2024-03-26T12:23:01.757Z,5.7
2024-03-26T12:28:01.767Z,5.7
2024-03-26T12:33:20.280Z,6.3
2024-03-26T12:38:20.281Z,6.2
2024-03-26T12:43:20.284Z,6.5
2024-03-26T12:49:01.758Z,6
2024-03-26T12:54:01.800Z,5.9
2024-03-26T12:59:20.271Z,6
2024-03-26T13:04:20.295Z,6.6
2024-03-26T13:10:01.767Z,6.2
2024-03-26T13:15:20.557Z,6.3
2024-03-26T13:20:20.286Z,6.6
2024-03-26T13:26:01.756Z,6.1
2024-03-26T13:36:20.307Z,6.6
2024-03-26T13:41:20.299Z,5.8
2024-03-26T13:47:01.759Z,5.2
2024-03-26T13:52:01.871Z,5.4
2024-03-26T13:57:01.768Z,4.9
2024-03-26T14:02:20.280Z,4.6
2024-03-26T14:07:20.302Z,4.7
2024-03-26T14:13:01.780Z,4.8
2024-03-26T14:18:01.784Z,4.7
2024-03-26T14:23:20.301Z,4.6
2024-03-26T14:28:20.303Z,4.9
2024-03-26T14:39:01.771Z,5.3
2024-03-26T14:44:01.775Z,5.8
2024-03-26T14:49:01.785Z,5.7
2024-03-26T14:59:20.309Z,5.5
2024-03-26T15:04:20.329Z,6.2
2024-03-26T15:10:01.779Z,6.2
2024-03-26T15:15:01.804Z,6
2024-03-26T15:20:20.305Z,5.6
2024-03-26T15:26:01.757Z,6.4
2024-03-26T15:31:01.779Z,6.2
2024-03-26T15:36:01.781Z,6.2
2024-03-26T15:41:20.315Z,6.2
2024-03-26T15:46:20.329Z,6.2
2024-03-26T15:52:11.817Z,6.9
2024-03-26T15:57:20.302Z,7
2024-03-26T16:02:20.319Z,6.7
2024-03-26T16:08:01.789Z,6.5
2024-03-26T16:13:01.789Z,6.8
2024-03-26T16:18:20.320Z,6.3
2024-03-26T16:23:20.313Z,6.7
2024-03-26T16:34:01.819Z,6.2
2024-03-26T16:39:20.355Z,6.1
2024-03-26T16:45:03.293Z,6.8
2024-03-26T16:50:01.817Z,6.4
2024-03-26T16:55:20.323Z,6.4
2024-03-26T17:01:01.863Z,5.6
2024-03-26T17:06:20.339Z,5.2
2024-03-26T17:12:01.929Z,5.2
2024-03-26T17:17:20.336Z,4.7
2024-03-26T17:23:01.813Z,4.9
2024-03-26T17:28:20.341Z,4.8
2024-03-26T17:39:20.327Z,4.3
2024-03-26T20:11:38.903Z,4.9
2024-03-26T20:17:01.840Z,5.1
2024-03-26T20:22:01.876Z,5.1
2024-03-26T20:27:20.386Z,5.5
2024-03-26T20:32:20.354Z,5.2
2024-03-26T20:37:20.366Z,5.5
2024-03-26T20:43:01.840Z,5.3
2024-03-26T20:48:01.944Z,5.3
2024-03-26T20:53:20.402Z,5.9
2024-03-26T20:58:20.376Z,6.5
2024-03-26T21:04:01.877Z,5.9
2024-03-26T21:09:20.356Z,6.3
2024-03-26T21:14:20.364Z,6.7
2024-03-26T21:19:20.365Z,7.1
2024-03-26T21:24:20.437Z,7.3
2024-03-26T21:30:01.840Z,7.2
2024-03-26T21:35:20.388Z,7.4
2024-03-26T21:41:04.271Z,7.2
2024-03-26T21:46:02.142Z,6.9
2024-03-26T21:51:20.404Z,6.6
2024-03-26T22:01:20.376Z,6.6
2024-03-26T22:06:20.390Z,6.6
2024-03-26T22:12:01.912Z,6.4
2024-03-26T22:17:20.364Z,6.5
2024-03-26T22:22:20.345Z,6.2
2024-03-26T22:27:20.377Z,6.1
2024-03-26T22:32:20.377Z,6.2
2024-03-26T22:38:01.855Z,6.4
2024-03-26T22:43:01.916Z,6.4
2024-03-26T22:48:20.389Z,6.4
2024-03-26T22:53:20.373Z,6.2
2024-03-26T22:58:20.394Z,6.4
2024-03-26T23:04:01.851Z,6.4
2024-03-26T23:09:01.843Z,6.2
2024-03-26T23:14:20.390Z,6.4
2024-03-26T23:20:01.905Z,6.7
2024-03-26T23:25:20.367Z,6.4
2024-03-26T23:36:01.890Z,6.1
2024-03-26T23:41:20.382Z,6.2
2024-03-26T23:47:01.880Z,6.2
2024-03-26T23:52:20.475Z,6.2
2024-03-26T23:57:20.381Z,6.2
